Terminal Aerodrome Forecast
Issued by NWS New Orleans/Baton Rouge, LA

Home | Current Version | Previous Version | Text Only | Print | Product List | Glossary On
Versions: 1 2 3 4 5 6 7 8 9 10 11 12 13 14
729
FTUS44 KLIX 181150
TAFBTR
TAF
KBTR 181150Z 1812/1912 00000KT 1 1/2SM BR OVC005
      TEMPO 1812/1815 SHRA
     FM181500 09004KT 2SM SHRA BR BKN005 OVC045
     FM181800 00000KT 5SM BR VCSH BKN015 OVC040
     FM182000 VRB03KT P6SM BKN015 OVC035
     FM190000 VRB03KT 5SM BR BKN025 OVC035
     FM190200 11004KT 3SM BR BKN015 OVC030
     FM190700 VRB03KT 1/2SM FG BKN003 OVC020=

USA.gov is the U.S. government's official web portal to all federal, state and local government web resources and services.